Time,TemperatureF,DewpointF,PressureIn,WindDirection,WindDirectionDegrees,WindSpeedMPH,WindSpeedGustMPH,Humidity,HourlyPrecipIn,Conditions,Clouds,dailyrainin,SoftwareType,DateUTC
2014-09-18 00:00:00,58.5,55.6,29.83,ESE,118,0.0,0.0,90,0.00,,,0.00,VWS V14.01,2014-09-18 04:00:00,
2014-09-18 00:05:00,58.6,56.0,29.83,ESE,119,0.0,0.0,91,0.00,,,0.00,VWS V14.01,2014-09-18 04:05:00,
2014-09-18 00:10:00,58.6,56.3,29.83,ESE,118,0.0,0.0,92,0.00,,,0.00,VWS V14.01,2014-09-18 04:10:00,
2014-09-18 00:15:00,58.5,56.2,29.83,ESE,118,0.0,0.0,92,0.00,,,0.00,VWS V14.01,2014-09-18 04:15:00,
2014-09-18 00:20:00,58.4,56.1,29.83,ESE,119,0.0,0.0,92,0.00,,,0.00,VWS V14.01,2014-09-18 04:20:00,
2014-09-18 00:25:00,58.4,56.1,29.83,ESE,118,0.0,0.0,92,0.00,,,0.00,VWS V14.01,2014-09-18 04:25:00,
2014-09-18 00:30:00,58.3,56.3,29.83,ESE,119,0.0,0.0,93,0.00,,,0.00,VWS V14.01,2014-09-18 04:30:00,
2014-09-18 00:35:00,58.2,56.2,29.82,ESE,118,0.0,0.0,93,0.00,,,0.00,VWS V14.01,2014-09-18 04:35:00,
2014-09-18 00:40:00,58.1,56.1,29.82,ESE,118,0.0,0.0,93,0.00,,,0.00,VWS V14.01,2014-09-18 04:40:00,
2014-09-18 00:45:00,58.0,56.3,29.82,ESE,118,0.0,0.0,94,0.00,,,0.00,VWS V14.01,2014-09-18 04:45:00,
2014-09-18 00:50:00,58.0,56.3,29.82,ESE,119,0.0,0.0,94,0.00,,,0.00,VWS V14.01,2014-09-18 04:50:00,
2014-09-18 00:55:00,58.0,56.3,29.82,ESE,117,0.0,0.0,94,0.00,,,0.00,VWS V14.01,2014-09-18 04:55:00,
2014-09-18 00:58:00,58.0,56.3,29.82,ESE,117,0.0,0.0,94,0.00,,,0.00,VWS V14.01,2014-09-18 04:58:00,
2014-09-18 01:03:00,58.0,56.3,29.82,ESE,117,0.0,0.0,94,0.00,,,0.00,VWS V14.01,2014-09-18 05:03:00,
2014-09-18 01:08:00,57.9,56.2,29.82,ESE,117,0.0,0.0,94,0.00,,,0.00,VWS V14.01,2014-09-18 05:08:00,
2014-09-18 01:13:00,57.7,56.3,29.82,ESE,118,0.0,0.0,95,0.00,,,0.00,VWS V14.01,2014-09-18 05:13:00,
2014-09-18 01:18:00,57.7,56.3,29.82,ESE,118,0.0,0.0,95,0.00,,,0.00,VWS V14.01,2014-09-18 05:18:00,
2014-09-18 01:23:00,57.8,56.4,29.82,SE,131,0.0,0.0,95,0.00,,,0.00,VWS V14.01,2014-09-18 05:23:00,
2014-09-18 01:28:00,58.0,56.6,29.81,ESE,110,0.0,0.0,95,0.00,,,0.00,VWS V14.01,2014-09-18 05:28:00,
2014-09-18 01:33:00,58.1,56.7,29.81,ESE,103,0.0,0.0,95,0.00,,,0.00,VWS V14.01,2014-09-18 05:33:00,
2014-09-18 01:38:00,58.0,56.6,29.81,ESE,105,0.0,0.0,95,0.00,,,0.00,VWS V14.01,2014-09-18 05:38:00,
2014-09-18 01:43:00,58.0,56.6,29.81,ESE,105,0.0,0.0,95,0.00,,,0.00,VWS V14.01,2014-09-18 05:43:00,
2014-09-18 01:48:00,57.9,56.5,29.81,ESE,105,0.0,0.0,95,0.00,,,0.00,VWS V14.01,2014-09-18 05:48:00,
2014-09-18 01:53:00,57.9,56.5,29.81,ESE,105,0.0,0.0,95,0.00,,,0.00,VWS V14.01,2014-09-18 05:53:00,
2014-09-18 01:58:00,57.9,56.5,29.81,ESE,104,0.0,0.0,95,0.00,,,0.00,VWS V14.01,2014-09-18 05:58:00,
2014-09-18 02:03:00,57.8,56.4,29.81,ESE,108,0.0,0.0,95,0.00,,,0.00,VWS V14.01,2014-09-18 06:03:00,
2014-09-18 02:08:00,58.0,56.6,29.81,ESE,110,0.0,0.0,95,0.00,,,0.00,VWS V14.01,2014-09-18 06:08:00,
2014-09-18 02:13:00,58.1,56.4,29.81,ESE,110,0.0,0.0,94,0.00,,,0.00,VWS V14.01,2014-09-18 06:13:00,
2014-09-18 02:18:00,58.2,56.5,29.81,ESE,110,0.0,0.0,94,0.00,,,0.00,VWS V14.01,2014-09-18 06:18:00,
2014-09-18 02:23:00,58.2,56.5,29.81,ESE,110,0.0,0.0,94,0.00,,,0.00,VWS V14.01,2014-09-18 06:23:00,
2014-09-18 02:28:00,58.2,56.5,29.81,ESE,110,0.0,0.0,94,0.00,,,0.00,VWS V14.01,2014-09-18 06:28:00,
2014-09-18 02:33:00,58.1,56.4,29.81,ESE,110,0.0,0.0,94,0.00,,,0.00,VWS V14.01,2014-09-18 06:33:00,
2014-09-18 02:38:00,58.1,56.7,29.81,ESE,110,0.0,0.0,95,0.00,,,0.00,VWS V14.01,2014-09-18 06:38:00,
2014-09-18 02:43:00,58.1,56.7,29.81,ESE,112,0.0,0.0,95,0.00,,,0.00,VWS V14.01,2014-09-18 06:43:00,
2014-09-18 02:48:00,58.2,56.5,29.81,ESE,108,2.0,2.0,94,0.00,,,0.00,VWS V14.01,2014-09-18 06:48:00,
2014-09-18 02:53:00,58.6,56.9,29.81,ESE,105,2.0,3.0,94,0.00,,,0.00,VWS V14.01,2014-09-18 06:53:00,
2014-09-18 02:58:00,59.0,57.0,29.81,East,85,1.0,3.0,93,0.00,,,0.00,VWS V14.01,2014-09-18 06:58:00,
2014-09-18 03:03:00,59.2,56.9,29.81,East,86,1.0,1.0,92,0.00,,,0.00,VWS V14.01,2014-09-18 07:03:00,
2014-09-18 03:08:00,59.1,56.8,29.81,SE,132,1.0,2.0,92,0.00,,,0.00,VWS V14.01,2014-09-18 07:08:00,
2014-09-18 03:13:00,59.1,56.8,29.81,SE,132,0.0,2.0,92,0.00,,,0.00,VWS V14.01,2014-09-18 07:13:00,
2014-09-18 03:18:00,59.1,56.8,29.81,ESE,110,0.0,2.0,92,0.00,,,0.00,VWS V14.01,2014-09-18 07:18:00,
2014-09-18 03:23:00,58.9,56.6,29.81,ESE,110,0.0,2.0,92,0.00,,,0.00,VWS V14.01,2014-09-18 07:23:00,
2014-09-18 03:28:00,58.8,56.8,29.81,ESE,105,0.0,2.0,93,0.00,,,0.00,VWS V14.01,2014-09-18 07:28:00,
2014-09-18 03:33:00,58.7,56.7,29.81,ESE,104,0.0,0.0,93,0.00,,,0.00,VWS V14.01,2014-09-18 07:33:00,
2014-09-18 03:38:00,58.7,56.7,29.81,ESE,105,0.0,0.0,93,0.00,,,0.00,VWS V14.01,2014-09-18 07:38:00,
2014-09-18 03:43:00,58.7,56.7,29.81,ESE,105,0.0,0.0,93,0.00,,,0.00,VWS V14.01,2014-09-18 07:43:00,
2014-09-18 03:48:00,58.7,56.7,29.81,ESE,105,0.0,1.0,93,0.00,,,0.00,VWS V14.01,2014-09-18 07:48:00,
2014-09-18 03:49:00,58.7,56.7,29.81,ESE,105,0.0,1.0,93,0.00,,,0.00,VWS V14.01,2014-09-18 07:49:00,
2014-09-18 03:54:00,58.8,56.8,29.81,ESE,105,0.0,1.0,93,0.00,,,0.00,VWS V14.01,2014-09-18 07:54:00,
2014-09-18 03:59:00,58.8,56.8,29.80,ESE,105,0.0,1.0,93,0.00,,,0.00,VWS V14.01,2014-09-18 07:59:00,
2014-09-18 04:04:00,58.9,56.9,29.80,NNW,328,0.0,1.0,93,0.00,,,0.00,VWS V14.01,2014-09-18 08:04:00,
2014-09-18 04:09:00,59.1,57.1,29.80,NNW,328,0.0,1.0,93,0.00,,,0.00,VWS V14.01,2014-09-18 08:09:00,
2014-09-18 04:14:00,59.0,57.0,29.80,NNW,328,0.0,1.0,93,0.00,,,0.00,VWS V14.01,2014-09-18 08:14:00,
2014-09-18 04:19:00,58.8,56.8,29.79,NNW,329,0.0,1.0,93,0.00,,,0.00,VWS V14.01,2014-09-18 08:19:00,
2014-09-18 04:24:00,58.6,56.6,29.80,NNW,330,0.0,1.0,93,0.00,,,0.00,VWS V14.01,2014-09-18 08:24:00,
2014-09-18 04:29:00,58.5,56.8,29.80,NNW,330,0.0,1.0,94,0.00,,,0.00,VWS V14.01,2014-09-18 08:29:00,
2014-09-18 04:34:00,58.5,56.8,29.80,SE,143,0.0,1.0,94,0.00,,,0.00,VWS V14.01,2014-09-18 08:34:00,
2014-09-18 04:39:00,58.5,56.8,29.81,SE,143,0.0,1.0,94,0.00,,,0.00,VWS V14.01,2014-09-18 08:39:00,
2014-09-18 04:44:00,58.6,56.9,29.81,SE,142,0.0,1.0,94,0.00,,,0.00,VWS V14.01,2014-09-18 08:44:00,
2014-09-18 04:49:00,58.7,57.0,29.81,SE,142,0.0,1.0,94,0.00,,,0.00,VWS V14.01,2014-09-18 08:49:00,
2014-09-18 04:54:00,58.8,57.1,29.81,SE,143,0.0,1.0,94,0.00,,,0.00,VWS V14.01,2014-09-18 08:54:00,
2014-09-18 04:59:00,58.6,57.2,29.81,SE,144,0.0,1.0,95,0.00,,,0.00,VWS V14.01,2014-09-18 08:59:00,
2014-09-18 05:04:00,58.4,57.0,29.81,SW,236,1.0,1.0,95,0.00,,,0.00,VWS V14.01,2014-09-18 09:04:00,
2014-09-18 05:09:00,58.2,56.5,29.81,SW,236,2.0,2.0,94,0.00,,,0.00,VWS V14.01,2014-09-18 09:09:00,
2014-09-18 05:14:00,57.9,55.9,29.81,WSW,249,2.0,4.0,93,0.00,,,0.00,VWS V14.01,2014-09-18 09:14:00,
2014-09-18 05:19:00,57.8,55.8,29.81,WSW,242,2.0,4.0,93,0.00,,,0.00,VWS V14.01,2014-09-18 09:19:00,
2014-09-18 05:24:00,57.7,55.4,29.81,West,262,0.0,4.0,92,0.00,,,0.00,VWS V14.01,2014-09-18 09:24:00,
2014-09-18 05:30:00,57.7,55.7,29.82,West,260,0.0,4.0,93,0.00,,,0.00,VWS V14.01,2014-09-18 09:30:00,
2014-09-18 05:35:00,57.4,55.4,29.82,WSW,257,2.0,2.0,93,0.00,,,0.00,VWS V14.01,2014-09-18 09:35:00,
2014-09-18 05:40:00,57.1,55.1,29.81,WSW,241,2.0,3.0,93,0.00,,,0.00,VWS V14.01,2014-09-18 09:40:00,
2014-09-18 05:45:00,57.0,55.0,29.82,WSW,238,2.0,4.0,93,0.00,,,0.00,VWS V14.01,2014-09-18 09:45:00,
2014-09-18 05:50:00,57.0,55.3,29.82,WSW,238,2.0,4.0,94,0.00,,,0.00,VWS V14.01,2014-09-18 09:50:00,
2014-09-18 05:55:00,56.9,54.9,29.82,WSW,238,3.0,4.0,93,0.00,,,0.00,VWS V14.01,2014-09-18 09:55:00,
2014-09-18 06:00:00,57.0,55.0,29.82,WSW,252,1.0,4.0,93,0.00,,,0.00,VWS V14.01,2014-09-18 10:00:00,
2014-09-18 06:05:00,56.9,54.9,29.82,WSW,252,1.0,3.0,93,0.00,,,0.00,VWS V14.01,2014-09-18 10:05:00,
2014-09-18 06:10:00,56.8,54.8,29.83,West,274,2.0,3.0,93,0.00,,,0.00,VWS V14.01,2014-09-18 10:10:00,
2014-09-18 06:15:00,56.7,54.7,29.83,West,260,1.0,3.0,93,0.00,,,0.00,VWS V14.01,2014-09-18 10:15:00,
2014-09-18 06:20:00,56.6,54.6,29.83,WSW,255,1.0,3.0,93,0.00,,,0.00,VWS V14.01,2014-09-18 10:20:00,
2014-09-18 06:25:00,56.5,54.5,29.83,WSW,257,0.0,3.0,93,0.00,,,0.00,VWS V14.01,2014-09-18 10:25:00,
2014-09-18 06:30:00,56.4,54.4,29.83,WSW,257,0.0,3.0,93,0.00,,,0.00,VWS V14.01,2014-09-18 10:30:00,
2014-09-18 06:35:00,56.3,54.3,29.84,WSW,257,0.0,1.0,93,0.00,,,0.00,VWS V14.01,2014-09-18 10:35:00,
2014-09-18 06:40:00,56.2,54.2,29.84,NNW,347,0.0,1.0,93,0.00,,,0.00,VWS V14.01,2014-09-18 10:40:00,
2014-09-18 06:45:00,56.1,54.4,29.84,ESE,105,0.0,2.0,94,0.00,,,0.00,VWS V14.01,2014-09-18 10:45:00,
2014-09-18 06:50:00,56.0,54.6,29.84,ESE,104,0.0,2.0,95,0.00,,,0.00,VWS V14.01,2014-09-18 10:50:00,
2014-09-18 06:53:00,55.8,54.1,29.84,ESE,105,0.0,2.0,94,0.00,,,0.00,VWS V14.01,2014-09-18 10:53:00,
2014-09-18 06:58:00,55.7,54.0,29.84,ESE,106,0.0,2.0,94,0.00,,,0.00,VWS V14.01,2014-09-18 10:58:00,
2014-09-18 07:03:00,55.8,54.1,29.84,South,175,0.0,1.0,94,0.00,,,0.00,VWS V14.01,2014-09-18 11:03:00,
2014-09-18 07:08:00,55.9,53.9,29.85,South,174,0.0,1.0,93,0.00,,,0.00,VWS V14.01,2014-09-18 11:08:00,
2014-09-18 07:13:00,56.0,54.0,29.85,SW,221,1.0,1.0,93,0.00,,,0.00,VWS V14.01,2014-09-18 11:13:00,
2014-09-18 07:18:00,56.1,54.1,29.85,WSW,240,1.0,2.0,93,0.00,,,0.00,VWS V14.01,2014-09-18 11:18:00,
2014-09-18 07:23:00,56.2,53.9,29.85,WSW,252,2.0,3.0,92,0.00,,,0.00,VWS V14.01,2014-09-18 11:23:00,
2014-09-18 07:28:00,56.3,54.0,29.84,WSW,258,1.0,3.0,92,0.00,,,0.00,VWS V14.01,2014-09-18 11:28:00,
2014-09-18 07:33:00,56.4,53.8,29.85,WSW,256,1.0,1.0,91,0.00,,,0.00,VWS V14.01,2014-09-18 11:33:00,
2014-09-18 07:38:00,56.4,53.8,29.84,WSW,256,1.0,1.0,91,0.00,,,0.00,VWS V14.01,2014-09-18 11:38:00,
2014-09-18 07:43:00,56.5,53.9,29.85,WSW,257,1.0,1.0,91,0.00,,,0.00,VWS V14.01,2014-09-18 11:43:00,
2014-09-18 07:48:00,56.7,54.1,29.85,WSW,257,0.0,1.0,91,0.00,,,0.00,VWS V14.01,2014-09-18 11:48:00,
2014-09-18 07:53:00,57.0,55.0,29.85,West,262,0.0,1.0,93,0.00,,,0.00,VWS V14.01,2014-09-18 11:53:00,
2014-09-18 07:58:00,57.1,55.1,29.85,ENE,61,0.0,2.0,93,0.00,,,0.00,VWS V14.01,2014-09-18 11:58:00,
2014-09-18 08:03:00,57.3,55.3,29.85,ENE,61,0.0,1.0,93,0.00,,,0.00,VWS V14.01,2014-09-18 12:03:00,
2014-09-18 08:08:00,57.4,55.4,29.85,East,92,0.0,2.0,93,0.00,,,0.00,VWS V14.01,2014-09-18 12:08:00,
2014-09-18 08:13:00,57.6,55.6,29.85,East,86,1.0,2.0,93,0.00,,,0.00,VWS V14.01,2014-09-18 12:13:00,
2014-09-18 08:18:00,57.9,55.9,29.85,East,86,0.0,2.0,93,0.00,,,0.00,VWS V14.01,2014-09-18 12:18:00,
2014-09-18 08:23:00,58.0,55.7,29.86,East,86,0.0,2.0,92,0.00,,,0.00,VWS V14.01,2014-09-18 12:23:00,
2014-09-18 08:28:00,58.5,56.5,29.86,East,86,0.0,2.0,93,0.00,,,0.00,VWS V14.01,2014-09-18 12:28:00,
2014-09-18 08:33:00,58.7,56.7,29.86,East,86,0.0,0.0,93,0.00,,,0.00,VWS V14.01,2014-09-18 12:33:00,
2014-09-18 08:38:00,58.8,56.8,29.86,East,86,0.0,0.0,93,0.00,,,0.00,VWS V14.01,2014-09-18 12:38:00,
2014-09-18 08:43:00,58.8,56.8,29.86,East,86,0.0,0.0,93,0.00,,,0.00,VWS V14.01,2014-09-18 12:43:00,
2014-09-18 08:48:00,58.6,56.3,29.86,East,86,0.0,0.0,92,0.00,,,0.00,VWS V14.01,2014-09-18 12:48:00,
2014-09-18 08:53:00,58.6,56.6,29.86,East,86,0.0,0.0,93,0.00,,,0.00,VWS V14.01,2014-09-18 12:53:00,
2014-09-18 08:58:00,58.6,56.6,29.87,East,86,0.0,0.0,93,0.00,,,0.00,VWS V14.01,2014-09-18 12:58:00,
2014-09-18 09:03:00,58.6,56.6,29.87,East,86,0.0,0.0,93,0.00,,,0.00,VWS V14.01,2014-09-18 13:03:00,
2014-09-18 09:08:00,58.5,56.5,29.87,East,86,0.0,0.0,93,0.00,,,0.00,VWS V14.01,2014-09-18 13:08:00,
2014-09-18 09:13:00,58.4,56.4,29.87,East,86,0.0,0.0,93,0.00,,,0.00,VWS V14.01,2014-09-18 13:13:00,
2014-09-18 09:14:00,58.5,56.8,29.87,East,86,0.0,0.0,94,0.00,,,0.00,VWS V14.01,2014-09-18 13:14:00,
2014-09-18 09:19:00,58.8,57.4,29.87,East,86,0.0,0.0,95,0.00,,,0.00,VWS V14.01,2014-09-18 13:19:00,
2014-09-18 09:24:00,58.9,57.2,29.87,East,86,0.0,0.0,94,0.00,,,0.00,VWS V14.01,2014-09-18 13:24:00,
2014-09-18 09:29:00,58.8,56.8,29.87,East,86,0.0,0.0,93,0.00,,,0.00,VWS V14.01,2014-09-18 13:29:00,
2014-09-18 09:35:00,58.7,56.7,29.87,East,88,0.0,0.0,93,0.00,,,0.00,VWS V14.01,2014-09-18 13:35:00,
2014-09-18 09:40:00,58.7,56.7,29.87,East,88,0.0,0.0,93,0.00,,,0.00,VWS V14.01,2014-09-18 13:40:00,
2014-09-18 09:45:00,58.9,56.9,29.87,East,86,0.0,0.0,93,0.00,,,0.00,VWS V14.01,2014-09-18 13:45:00,
2014-09-18 09:50:00,59.2,56.9,29.87,East,86,0.0,0.0,92,0.00,,,0.00,VWS V14.01,2014-09-18 13:50:00,
2014-09-18 09:55:00,59.5,57.2,29.87,East,88,0.0,0.0,92,0.00,,,0.00,VWS V14.01,2014-09-18 13:55:00,
2014-09-18 10:00:00,59.7,57.1,29.87,ESE,102,0.0,0.0,91,0.00,,,0.00,VWS V14.01,2014-09-18 14:00:00,
2014-09-18 10:05:00,59.8,56.9,29.87,ESE,110,0.0,0.0,90,0.00,,,0.00,VWS V14.01,2014-09-18 14:05:00,
2014-09-18 10:10:00,60.1,57.5,29.87,ESE,109,0.0,1.0,91,0.00,,,0.00,VWS V14.01,2014-09-18 14:10:00,
2014-09-18 10:15:00,60.3,57.7,29.88,ESE,109,1.0,1.0,91,0.00,,,0.00,VWS V14.01,2014-09-18 14:15:00,
2014-09-18 10:20:00,60.7,57.8,29.88,ESE,108,1.0,1.0,90,0.00,,,0.00,VWS V14.01,2014-09-18 14:20:00,
2014-09-18 10:25:00,61.4,58.5,29.88,ESE,104,1.0,1.0,90,0.00,,,0.00,VWS V14.01,2014-09-18 14:25:00,
2014-09-18 10:30:00,62.0,59.0,29.88,ESE,107,0.0,2.0,90,0.00,,,0.00,VWS V14.01,2014-09-18 14:30:00,
2014-09-18 10:35:00,62.4,58.8,29.88,East,79,1.0,1.0,88,0.00,,,0.00,VWS V14.01,2014-09-18 14:35:00,
2014-09-18 10:40:00,62.7,58.8,29.88,ENE,67,0.0,2.0,87,0.00,,,0.00,VWS V14.01,2014-09-18 14:40:00,
2014-09-18 10:45:00,63.0,59.1,29.88,ENE,67,0.0,2.0,87,0.00,,,0.00,VWS V14.01,2014-09-18 14:45:00,
2014-09-18 10:50:00,63.0,59.1,29.88,ENE,67,0.0,2.0,87,0.00,,,0.00,VWS V14.01,2014-09-18 14:50:00,
2014-09-18 10:55:00,63.3,60.0,29.88,ENE,67,1.0,2.0,89,0.00,,,0.00,VWS V14.01,2014-09-18 14:55:00,
2014-09-18 11:00:00,63.6,59.7,29.88,ENE,74,0.0,2.0,87,0.00,,,0.00,VWS V14.01,2014-09-18 15:00:00,
2014-09-18 11:05:00,63.9,58.6,29.88,ENE,75,1.0,2.0,83,0.00,,,0.00,VWS V14.01,2014-09-18 15:05:00,
2014-09-18 11:10:00,64.4,59.8,29.88,ENE,75,1.0,2.0,85,0.00,,,0.00,VWS V14.01,2014-09-18 15:10:00,
2014-09-18 11:15:00,65.0,59.0,29.88,ESE,105,1.0,3.0,81,0.00,,,0.00,VWS V14.01,2014-09-18 15:15:00,
2014-09-18 11:20:00,65.6,60.0,29.88,ESE,105,1.0,3.0,82,0.00,,,0.00,VWS V14.01,2014-09-18 15:20:00,
2014-09-18 11:25:00,66.5,59.4,29.88,SE,130,0.0,3.0,78,0.00,,,0.00,VWS V14.01,2014-09-18 15:25:00,
2014-09-18 11:30:00,67.4,60.7,29.89,ESE,107,0.0,3.0,79,0.00,,,0.00,VWS V14.01,2014-09-18 15:30:00,
2014-09-18 11:35:00,68.0,61.6,29.89,ENE,70,0.0,1.0,80,0.00,,,0.00,VWS V14.01,2014-09-18 15:35:00,
2014-09-18 11:40:00,68.3,61.5,29.88,ENE,68,0.0,1.0,79,0.00,,,0.00,VWS V14.01,2014-09-18 15:40:00,
2014-09-18 11:45:00,68.5,61.4,29.89,ENE,57,0.0,1.0,78,0.00,,,0.00,VWS V14.01,2014-09-18 15:45:00,
2014-09-18 11:48:00,68.8,61.7,29.89,North,359,2.0,2.0,78,0.00,,,0.00,VWS V14.01,2014-09-18 15:48:00,
2014-09-18 11:53:00,69.0,61.5,29.88,NNE,18,1.0,3.0,77,0.00,,,0.00,VWS V14.01,2014-09-18 15:53:00,
2014-09-18 11:58:00,69.2,61.3,29.88,North,352,1.0,3.0,76,0.00,,,0.00,VWS V14.01,2014-09-18 15:58:00,
2014-09-18 12:03:00,70.1,61.4,29.88,NW,316,0.0,1.0,74,0.00,,,0.00,VWS V14.01,2014-09-18 16:03:00,
2014-09-18 12:08:00,70.8,61.7,29.88,ENE,77,0.0,1.0,73,0.00,,,0.00,VWS V14.01,2014-09-18 16:08:00,
2014-09-18 12:13:00,70.3,62.0,29.88,NNW,338,0.0,2.0,75,0.00,,,0.00,VWS V14.01,2014-09-18 16:13:00,
2014-09-18 12:18:00,70.1,61.0,29.88,North,351,0.0,2.0,73,0.00,,,0.00,VWS V14.01,2014-09-18 16:18:00,
2014-09-18 12:23:00,69.8,59.2,29.88,North,349,0.0,2.0,69,0.00,,,0.00,VWS V14.01,2014-09-18 16:23:00,
2014-09-18 12:28:00,69.3,59.9,29.88,East,88,0.0,2.0,72,0.00,,,0.00,VWS V14.01,2014-09-18 16:28:00,
2014-09-18 12:33:00,69.1,60.1,29.88,East,87,0.0,0.0,73,0.00,,,0.00,VWS V14.01,2014-09-18 16:33:00,
2014-09-18 12:38:00,68.9,58.7,29.88,East,87,0.0,0.0,70,0.00,,,0.00,VWS V14.01,2014-09-18 16:38:00,